createdAt,value
2023-05-06T00:02:18.599Z,9.60
2023-05-06T00:04:45.666Z,9.60
2023-05-06T00:07:12.871Z,9.60
2023-05-06T00:09:39.845Z,9.50
2023-05-06T00:12:06.608Z,9.50
2023-05-06T00:14:33.412Z,9.50
2023-05-06T00:17:00.696Z,9.50
2023-05-06T00:19:29.493Z,9.40
2023-05-06T00:21:56.361Z,9.40
2023-05-06T00:24:23.159Z,9.40
2023-05-06T00:26:50.169Z,9.40
2023-05-06T00:29:17.472Z,9.40
2023-05-06T00:31:45.382Z,9.30
2023-05-06T00:34:12.485Z,9.30
2023-05-06T00:36:39.265Z,9.30
2023-05-06T00:39:06.175Z,9.20
2023-05-06T00:41:36.043Z,9.20
2023-05-06T00:44:02.833Z,9.20
2023-05-06T00:46:29.913Z,9.20
2023-05-06T00:48:58.216Z,9.20
2023-05-06T00:51:26.502Z,9.10
2023-05-06T00:53:53.518Z,9.10
2023-05-06T00:56:20.951Z,9.10
2023-05-06T00:58:48.480Z,9.20
2023-05-06T01:01:15.643Z,9.20
2023-05-06T01:03:42.940Z,9.20
2023-05-06T01:06:19.602Z,9.20
2023-05-06T01:08:58.954Z,9.20
2023-05-06T01:12:09.176Z,9.30
2023-05-06T01:14:59.688Z,9.30
2023-05-06T01:17:28.383Z,9.30
2023-05-06T01:19:59.371Z,9.30
2023-05-06T01:22:28.684Z,9.30
2023-05-06T01:24:55.656Z,9.30
2023-05-06T01:27:24.735Z,9.30
2023-05-06T01:29:52.901Z,9.30
2023-05-06T01:32:20.307Z,9.30
2023-05-06T01:35:03.862Z,9.30
2023-05-06T01:37:41.276Z,9.30
2023-05-06T01:40:09.364Z,9.30
2023-05-06T01:42:39.060Z,9.30
2023-05-06T01:45:09.853Z,9.40
2023-05-06T01:47:37.497Z,9.30
2023-05-06T01:50:05.106Z,9.30
2023-05-06T01:52:32.146Z,9.30
2023-05-06T01:54:59.105Z,9.40
2023-05-06T01:57:26.294Z,9.30
2023-05-06T01:59:53.328Z,9.30
2023-05-06T02:02:20.166Z,9.30
2023-05-06T02:04:47.025Z,9.30
2023-05-06T02:07:13.782Z,9.30
2023-05-06T02:09:40.852Z,9.30
2023-05-06T02:12:07.597Z,9.30
2023-05-06T02:14:34.396Z,9.30
2023-05-06T02:17:05.083Z,9.30
2023-05-06T02:19:31.999Z,9.30
2023-05-06T02:21:58.869Z,9.30
2023-05-06T02:24:26.753Z,9.30
2023-05-06T02:26:53.768Z,9.20
2023-05-06T02:29:20.775Z,9.20
2023-05-06T02:31:47.894Z,9.30
2023-05-06T02:34:16.356Z,9.20
2023-05-06T02:36:43.308Z,9.20
2023-05-06T02:39:10.153Z,9.20
2023-05-06T02:41:36.963Z,9.20
2023-05-06T02:44:05.027Z,9.20
2023-05-06T02:46:32.497Z,9.20
2023-05-06T02:49:00.123Z,9.20
2023-05-06T02:51:27.105Z,9.10
2023-05-06T02:53:54.050Z,9.10
2023-05-06T02:56:20.996Z,9.00
2023-05-06T02:58:47.948Z,9.00
2023-05-06T03:01:14.924Z,9.00
2023-05-06T03:03:42.066Z,8.90
2023-05-06T03:06:10.059Z,8.90
2023-05-06T03:08:36.910Z,8.90
2023-05-06T03:11:03.733Z,8.90
2023-05-06T03:13:30.948Z,8.90
2023-05-06T03:15:57.811Z,8.90
2023-05-06T03:18:24.657Z,8.90
2023-05-06T03:20:51.676Z,8.90
2023-05-06T03:23:18.668Z,8.90
2023-05-06T03:25:45.573Z,8.90
2023-05-06T03:28:12.366Z,9.00
2023-05-06T03:30:39.635Z,9.00
2023-05-06T03:33:06.718Z,9.00
2023-05-06T03:35:33.522Z,9.10
2023-05-06T03:38:00.442Z,9.00
2023-05-06T03:40:27.588Z,9.00
2023-05-06T03:42:54.392Z,9.00
2023-05-06T03:45:21.163Z,9.00
2023-05-06T03:47:48.400Z,9.00
2023-05-06T03:50:15.677Z,9.00
2023-05-06T03:52:42.898Z,9.00
2023-05-06T03:55:10.270Z,9.00
2023-05-06T03:57:37.377Z,8.90
2023-05-06T04:00:06.234Z,8.90
2023-05-06T04:02:35.547Z,8.90
2023-05-06T04:05:02.533Z,8.90
2023-05-06T04:07:29.477Z,8.90
2023-05-06T04:09:56.568Z,8.90
2023-05-06T04:12:23.273Z,8.90
2023-05-06T04:14:50.137Z,8.90
2023-05-06T04:17:16.908Z,8.90
2023-05-06T04:19:43.812Z,8.90
2023-05-06T04:22:10.651Z,8.80
2023-05-06T04:24:37.523Z,8.80
2023-05-06T04:27:04.364Z,8.90
2023-05-06T04:29:31.128Z,8.90
2023-05-06T04:31:58.054Z,8.90
2023-05-06T04:34:27.694Z,8.90
2023-05-06T04:36:54.766Z,8.90
2023-05-06T04:39:21.564Z,8.90
2023-05-06T04:41:49.158Z,8.90
2023-05-06T04:44:16.700Z,8.90
2023-05-06T04:46:43.642Z,9.00
2023-05-06T04:49:12.426Z,9.00
2023-05-06T04:51:39.489Z,9.00
2023-05-06T04:54:06.374Z,9.10
2023-05-06T04:56:33.729Z,9.20
2023-05-06T04:59:00.839Z,9.20
2023-05-06T05:01:27.947Z,9.20
2023-05-06T05:03:54.985Z,9.30
2023-05-06T05:06:21.872Z,9.30
2023-05-06T05:08:48.606Z,9.40
2023-05-06T05:11:15.385Z,9.50
2023-05-06T05:13:42.273Z,9.50
2023-05-06T05:16:09.238Z,9.60
2023-05-06T05:18:36.152Z,9.60
2023-05-06T05:21:02.952Z,9.60
2023-05-06T05:23:29.836Z,9.70
2023-05-06T05:25:56.617Z,9.70
2023-05-06T05:28:23.478Z,9.70
2023-05-06T05:30:50.258Z,9.70
2023-05-06T05:33:17.201Z,9.80
2023-05-06T05:35:45.487Z,9.80
2023-05-06T05:38:15.365Z,9.80
2023-05-06T05:40:42.309Z,9.90
2023-05-06T05:43:09.230Z,10.00
2023-05-06T05:45:36.102Z,10.00
2023-05-06T05:48:03.949Z,10.00
2023-05-06T05:50:30.912Z,10.10
2023-05-06T05:52:57.823Z,10.20
2023-05-06T05:55:24.737Z,10.20
2023-05-06T05:57:51.732Z,10.30
2023-05-06T06:00:19.194Z,10.30
2023-05-06T06:02:46.110Z,10.40
2023-05-06T06:05:12.929Z,10.50
2023-05-06T06:07:39.934Z,10.60
2023-05-06T06:10:07.254Z,10.60
2023-05-06T06:12:34.096Z,10.70
2023-05-06T06:15:00.997Z,10.80
2023-05-06T06:17:28.817Z,10.90
2023-05-06T06:19:57.294Z,11.00
2023-05-06T06:22:24.254Z,11.10
2023-05-06T06:24:53.769Z,11.10
2023-05-06T06:27:20.823Z,11.20
2023-05-06T06:29:50.913Z,11.20
2023-05-06T06:32:18.013Z,11.30
2023-05-06T06:34:44.955Z,11.30
2023-05-06T06:37:12.493Z,11.30
2023-05-06T06:39:40.416Z,11.40
2023-05-06T06:42:07.265Z,11.40
2023-05-06T06:44:34.635Z,11.50
2023-05-06T06:47:01.613Z,11.60
2023-05-06T06:49:28.455Z,11.70
2023-05-06T06:51:57.459Z,11.70
2023-05-06T06:54:24.554Z,11.80
2023-05-06T06:56:55.920Z,11.90
2023-05-06T06:59:23.041Z,12.00
2023-05-06T07:01:50.661Z,12.20
2023-05-06T07:04:17.435Z,12.20
2023-05-06T07:06:44.381Z,12.30
2023-05-06T07:09:12.044Z,12.30
2023-05-06T07:11:39.041Z,12.20
2023-05-06T07:14:05.753Z,12.30
2023-05-06T07:16:32.656Z,12.30
2023-05-06T07:19:00.194Z,12.30
2023-05-06T07:21:28.181Z,12.40
2023-05-06T07:23:54.946Z,12.40
2023-05-06T07:26:21.959Z,12.40
2023-05-06T07:28:48.925Z,12.50
2023-05-06T07:31:16.441Z,12.60
2023-05-06T07:33:43.226Z,12.60
2023-05-06T07:36:10.148Z,12.70
2023-05-06T07:38:36.901Z,12.70
2023-05-06T07:41:03.903Z,12.70
2023-05-06T07:43:31.189Z,12.70
2023-05-06T07:46:02.888Z,12.70
2023-05-06T07:48:30.181Z,12.70
2023-05-06T07:50:57.426Z,12.60
2023-05-06T07:53:24.374Z,12.60
2023-05-06T07:55:52.486Z,12.60
2023-05-06T07:58:19.509Z,12.50
2023-05-06T08:00:46.192Z,12.50
2023-05-06T08:03:13.063Z,12.50
2023-05-06T08:05:40.202Z,12.50
2023-05-06T08:08:07.042Z,12.50
2023-05-06T08:10:34.161Z,12.50
2023-05-06T08:13:01.034Z,12.50
2023-05-06T08:15:27.810Z,12.60
2023-05-06T08:17:56.654Z,12.60
2023-05-06T08:20:24.590Z,12.60
2023-05-06T08:22:51.447Z,12.60
2023-05-06T08:25:18.320Z,12.70
2023-05-06T08:27:45.728Z,12.70
2023-05-06T08:30:13.290Z,12.60
2023-05-06T08:32:40.295Z,12.60
2023-05-06T08:35:07.877Z,12.60
2023-05-06T08:37:34.673Z,12.60
2023-05-06T08:40:01.475Z,12.60
2023-05-06T08:42:30.347Z,12.60
2023-05-06T08:44:59.592Z,12.60
2023-05-06T08:47:26.684Z,12.70
2023-05-06T08:49:53.489Z,12.60
2023-05-06T08:52:21.433Z,12.60
2023-05-06T08:54:51.505Z,12.60
2023-05-06T08:57:18.577Z,12.60
2023-05-06T08:59:45.799Z,12.60
2023-05-06T09:02:13.134Z,12.50
2023-05-06T09:04:41.003Z,12.50
2023-05-06T09:07:08.547Z,12.50
2023-05-06T09:09:35.860Z,12.50
2023-05-06T09:12:02.869Z,12.40
2023-05-06T09:14:29.902Z,12.50
2023-05-06T09:16:56.697Z,12.50
2023-05-06T09:19:23.502Z,12.60
2023-05-06T09:21:51.495Z,12.50
2023-05-06T09:24:18.938Z,12.60
2023-05-06T09:26:46.953Z,12.60
2023-05-06T09:29:14.315Z,12.50
2023-05-06T09:31:46.402Z,12.60
2023-05-06T09:34:14.258Z,12.60
2023-05-06T09:36:41.379Z,12.60
2023-05-06T09:39:08.789Z,12.60
2023-05-06T09:41:35.992Z,12.60
2023-05-06T09:44:03.713Z,12.50
2023-05-06T09:46:30.555Z,12.50
2023-05-06T09:48:58.235Z,12.50
2023-05-06T09:51:27.803Z,12.50
2023-05-06T09:53:57.710Z,12.50
2023-05-06T09:56:25.976Z,12.50
2023-05-06T09:58:54.430Z,12.50
2023-05-06T10:01:32.855Z,12.50
2023-05-06T10:04:09.787Z,12.50
2023-05-06T10:06:39.731Z,12.40
2023-05-06T10:09:07.645Z,12.40
2023-05-06T10:11:35.373Z,12.40
2023-05-06T10:14:02.553Z,12.40
2023-05-06T10:16:29.863Z,12.40
2023-05-06T10:18:58.165Z,12.40
2023-05-06T10:21:27.531Z,12.40
2023-05-06T10:24:16.382Z,12.40
2023-05-06T10:26:46.729Z,12.40
2023-05-06T10:29:13.860Z,12.40
2023-05-06T10:31:54.711Z,12.30
2023-05-06T10:34:22.769Z,12.30
2023-05-06T10:36:53.947Z,12.20
2023-05-06T10:39:21.587Z,12.20
2023-05-06T10:41:49.022Z,12.20
2023-05-06T10:44:16.455Z,12.10
2023-05-06T10:47:12.767Z,12.10
2023-05-06T10:49:39.500Z,12.00
2023-05-06T10:52:14.299Z,12.00
2023-05-06T10:54:51.469Z,11.90
2023-05-06T10:57:20.834Z,11.90
2023-05-06T10:59:48.958Z,11.80
2023-05-06T11:02:19.958Z,11.80
2023-05-06T11:04:53.051Z,11.80
2023-05-06T11:07:24.106Z,11.70
2023-05-06T11:09:58.439Z,11.70
2023-05-06T11:12:51.260Z,11.70
2023-05-06T11:15:24.179Z,11.70
2023-05-06T11:17:51.239Z,11.60
2023-05-06T11:20:23.420Z,11.60
2023-05-06T11:22:50.419Z,11.60
2023-05-06T11:25:40.759Z,11.60
2023-05-06T11:28:11.805Z,11.60
2023-05-06T11:30:42.512Z,11.60
2023-05-06T11:33:18.408Z,11.60
2023-05-06T11:35:45.712Z,11.60
2023-05-06T11:38:12.574Z,11.50
2023-05-06T11:40:41.963Z,11.50
2023-05-06T11:43:16.125Z,11.40
2023-05-06T11:45:48.145Z,11.40
2023-05-06T11:48:16.736Z,11.30
2023-05-06T11:50:48.407Z,11.20
2023-05-06T11:53:19.119Z,11.20
2023-05-06T11:55:47.213Z,11.10
2023-05-06T11:58:19.112Z,11.00
2023-05-06T12:01:04.655Z,11.00
2023-05-06T12:03:33.328Z,10.90
2023-05-06T12:06:01.273Z,10.90
2023-05-06T12:08:34.588Z,10.80
2023-05-06T12:11:03.267Z,10.80
2023-05-06T12:13:30.643Z,10.70
2023-05-06T12:16:01.545Z,10.70
2023-05-06T12:18:28.916Z,10.70
2023-05-06T12:20:57.288Z,10.70
2023-05-06T12:23:24.337Z,10.70
2023-05-06T12:26:02.498Z,10.60
2023-05-06T12:28:30.225Z,10.60
2023-05-06T12:30:57.224Z,10.50
2023-05-06T12:33:24.243Z,10.50
2023-05-06T12:35:58.336Z,10.40
2023-05-06T12:38:25.291Z,10.30
2023-05-06T12:40:55.518Z,10.30
2023-05-06T12:43:31.691Z,10.20
2023-05-06T12:46:09.034Z,10.10
2023-05-06T12:48:36.084Z,10.10
2023-05-06T12:51:18.974Z,10.00
2023-05-06T12:53:46.213Z,10.00
2023-05-06T12:56:13.372Z,9.90
2023-05-06T12:58:40.173Z,9.90
2023-05-06T13:01:07.766Z,9.90
2023-05-06T13:03:38.372Z,9.90
2023-05-06T13:06:05.872Z,9.90
2023-05-06T13:08:33.863Z,9.90
2023-05-06T13:11:02.419Z,9.80
2023-05-06T13:13:29.223Z,9.90
2023-05-06T13:15:56.456Z,9.80
2023-05-06T13:18:23.461Z,9.90
2023-05-06T13:20:51.657Z,9.80
2023-05-06T13:23:19.450Z,9.80
2023-05-06T13:26:02.772Z,9.80
2023-05-06T13:28:32.080Z,9.90
2023-05-06T13:30:58.976Z,9.90
2023-05-06T13:33:26.098Z,9.90
2023-05-06T13:35:52.998Z,9.90
2023-05-06T13:38:19.781Z,9.90
2023-05-06T13:40:50.333Z,9.90
2023-05-06T13:43:17.685Z,9.90
2023-05-06T13:45:45.062Z,9.90
2023-05-06T13:48:15.132Z,9.90
2023-05-06T13:50:42.677Z,9.90
2023-05-06T13:53:10.655Z,9.90
2023-05-06T13:55:38.167Z,9.90
2023-05-06T13:58:06.131Z,9.90
2023-05-06T14:00:33.664Z,9.90
2023-05-06T14:03:00.746Z,9.90
2023-05-06T14:05:28.560Z,9.80
2023-05-06T14:07:55.536Z,9.80
2023-05-06T14:10:22.626Z,9.80
2023-05-06T14:12:49.419Z,9.80
2023-05-06T14:15:16.459Z,9.70
2023-05-06T14:17:43.445Z,9.70
2023-05-06T14:20:10.763Z,9.70
2023-05-06T14:22:41.090Z,9.70
2023-05-06T14:25:09.055Z,9.60
2023-05-06T14:27:36.182Z,9.60
2023-05-06T14:30:08.204Z,9.60
2023-05-06T14:32:35.813Z,9.60
2023-05-06T14:35:02.988Z,9.60
2023-05-06T14:37:29.785Z,9.50
2023-05-06T14:39:57.526Z,9.50
2023-05-06T14:42:24.480Z,9.60
2023-05-06T14:44:51.673Z,9.50
2023-05-06T14:47:18.989Z,9.60
2023-05-06T14:49:45.864Z,9.60
2023-05-06T14:52:12.852Z,9.60
2023-05-06T14:54:42.918Z,9.50
2023-05-06T14:57:10.218Z,9.50
2023-05-06T14:59:37.729Z,9.50
2023-05-06T15:02:07.377Z,9.50
2023-05-06T15:04:34.524Z,9.50
2023-05-06T15:07:01.359Z,9.40
2023-05-06T15:09:28.205Z,9.30
2023-05-06T15:11:54.945Z,9.30
2023-05-06T15:14:21.673Z,9.30
2023-05-06T15:16:48.468Z,9.20
2023-05-06T15:19:15.228Z,9.20
2023-05-06T15:21:41.927Z,9.20
2023-05-06T15:24:08.920Z,9.10
2023-05-06T15:26:35.790Z,9.10
2023-05-06T15:29:02.516Z,9.00
2023-05-06T15:31:31.983Z,9.00
2023-05-06T15:34:00.492Z,9.00
2023-05-06T15:36:27.734Z,9.00
2023-05-06T15:39:00.348Z,9.00
2023-05-06T15:41:32.041Z,8.90
2023-05-06T15:44:00.009Z,8.90
2023-05-06T15:46:27.717Z,8.90
2023-05-06T15:49:17.431Z,8.90
2023-05-06T15:51:42.417Z,8.90
2023-05-06T15:54:09.097Z,8.80
2023-05-06T15:56:40.532Z,8.80
2023-05-06T15:59:08.383Z,8.80
2023-05-06T16:01:53.928Z,8.80
2023-05-06T16:04:22.601Z,8.80
2023-05-06T16:06:49.734Z,8.70
2023-05-06T16:09:16.576Z,8.70
2023-05-06T16:11:43.347Z,8.70
2023-05-06T16:14:10.152Z,8.70
2023-05-06T16:16:37.354Z,8.70
2023-05-06T16:19:04.867Z,8.70
2023-05-06T16:21:31.832Z,8.70
2023-05-06T16:23:58.541Z,8.60
2023-05-06T16:26:25.393Z,8.60
2023-05-06T16:28:53.712Z,8.50
2023-05-06T16:31:20.817Z,8.50
2023-05-06T16:33:47.830Z,8.40
2023-05-06T16:36:14.862Z,8.50
2023-05-06T16:38:41.653Z,8.40
2023-05-06T16:41:08.467Z,8.40
2023-05-06T16:43:35.154Z,8.40
2023-05-06T16:46:01.955Z,8.40
2023-05-06T16:48:28.935Z,8.40
2023-05-06T16:50:55.975Z,8.30
2023-05-06T16:53:22.684Z,8.30
2023-05-06T16:55:50.155Z,8.30
2023-05-06T16:58:17.988Z,8.30
2023-05-06T17:00:45.008Z,8.30
2023-05-06T17:03:11.964Z,8.30
2023-05-06T17:05:38.808Z,8.30
2023-05-06T17:08:05.812Z,8.30
2023-05-06T17:10:32.837Z,8.30
2023-05-06T17:12:59.735Z,8.20
2023-05-06T17:15:26.799Z,8.20
2023-05-06T17:17:54.024Z,8.20
2023-05-06T17:20:21.049Z,8.20
2023-05-06T17:22:49.952Z,8.20
2023-05-06T17:25:16.898Z,8.20
2023-05-06T17:27:45.277Z,8.20
2023-05-06T17:30:12.776Z,8.20
2023-05-06T17:32:39.969Z,8.20
2023-05-06T17:35:07.420Z,8.10
2023-05-06T17:37:34.918Z,8.10
2023-05-06T17:40:02.310Z,8.10
2023-05-06T17:42:29.826Z,8.10
2023-05-06T17:44:56.564Z,8.10
2023-05-06T17:47:23.296Z,8.10
2023-05-06T17:49:53.941Z,8.10
2023-05-06T17:52:20.859Z,8.10
2023-05-06T17:55:05.781Z,8.00
2023-05-06T17:57:37.699Z,8.00
2023-05-06T18:00:05.489Z,8.00
2023-05-06T18:02:32.357Z,8.00
2023-05-06T18:04:59.307Z,8.00
2023-05-06T18:07:26.084Z,8.00
2023-05-06T18:09:53.298Z,8.00
2023-05-06T18:12:20.296Z,8.00
2023-05-06T18:14:47.940Z,8.00
2023-05-06T18:17:14.709Z,8.00
2023-05-06T18:19:41.426Z,8.00
2023-05-06T18:22:08.251Z,7.90
2023-05-06T18:24:34.961Z,7.90
2023-05-06T18:27:02.307Z,7.90
2023-05-06T18:29:30.389Z,7.90
2023-05-06T18:31:57.775Z,7.90
2023-05-06T18:34:24.559Z,7.90
2023-05-06T18:36:51.391Z,7.80
2023-05-06T18:39:18.090Z,7.90
2023-05-06T18:41:44.861Z,7.90
2023-05-06T18:44:11.920Z,7.90
2023-05-06T18:46:38.941Z,7.90
2023-05-06T18:49:08.181Z,7.90
2023-05-06T18:51:34.949Z,7.80
2023-05-06T18:54:01.706Z,7.80
2023-05-06T18:56:28.437Z,7.80
2023-05-06T18:58:55.262Z,7.80
2023-05-06T19:01:22.903Z,7.80
2023-05-06T19:03:49.719Z,7.80
2023-05-06T19:06:16.744Z,7.80
2023-05-06T19:08:43.670Z,7.80
2023-05-06T19:11:18.347Z,7.80
2023-05-06T19:13:46.645Z,7.80
2023-05-06T19:16:13.642Z,7.80
2023-05-06T19:18:40.634Z,7.70
2023-05-06T19:21:12.615Z,7.80
2023-05-06T19:23:39.542Z,7.80
2023-05-06T19:26:06.952Z,7.80
2023-05-06T19:28:34.376Z,7.70
2023-05-06T19:31:01.535Z,7.80
2023-05-06T19:33:28.826Z,7.70
2023-05-06T19:35:55.661Z,7.70
2023-05-06T19:38:22.396Z,7.70
2023-05-06T19:40:49.318Z,7.70
2023-05-06T19:43:16.663Z,7.70
2023-05-06T19:45:43.456Z,7.70
2023-05-06T19:48:10.331Z,7.70
2023-05-06T19:50:37.261Z,7.70
2023-05-06T19:53:04.262Z,7.70
2023-05-06T19:55:31.655Z,7.70
2023-05-06T19:57:59.095Z,7.70
2023-05-06T20:00:28.054Z,7.70
2023-05-06T20:02:57.510Z,7.70
2023-05-06T20:05:25.097Z,7.70
2023-05-06T20:07:52.127Z,7.70
2023-05-06T20:10:19.977Z,7.70
2023-05-06T20:12:46.706Z,7.70
2023-05-06T20:15:13.748Z,7.60
2023-05-06T20:17:40.868Z,7.70
2023-05-06T20:20:10.019Z,7.60
2023-05-06T20:22:40.662Z,7.70
2023-05-06T20:25:12.145Z,7.60
2023-05-06T20:27:39.338Z,7.60
2023-05-06T20:30:08.125Z,7.70
2023-05-06T20:32:35.870Z,7.60
2023-05-06T20:35:04.318Z,7.60
2023-05-06T20:37:31.525Z,7.60
2023-05-06T20:39:58.479Z,7.60
2023-05-06T20:42:25.431Z,7.60
2023-05-06T20:44:52.571Z,7.60
2023-05-06T20:47:19.726Z,7.50
2023-05-06T20:49:46.708Z,7.60
2023-05-06T20:52:14.678Z,7.60
2023-05-06T20:54:43.032Z,7.60
2023-05-06T20:57:10.767Z,7.50
2023-05-06T20:59:37.931Z,7.50
2023-05-06T21:02:05.413Z,7.50
2023-05-06T21:04:32.867Z,7.50
2023-05-06T21:06:59.856Z,7.60
2023-05-06T21:09:29.069Z,7.50
2023-05-06T21:11:56.562Z,7.50
2023-05-06T21:14:25.243Z,7.50
2023-05-06T21:16:53.066Z,7.50
2023-05-06T21:19:20.564Z,7.50
2023-05-06T21:21:47.608Z,7.50
2023-05-06T21:24:14.391Z,7.50
2023-05-06T21:26:42.205Z,7.50
2023-05-06T21:29:09.183Z,7.40
2023-05-06T21:31:36.664Z,7.40
2023-05-06T21:34:07.274Z,7.40
2023-05-06T21:36:36.090Z,7.40
2023-05-06T21:39:08.472Z,7.40
2023-05-06T21:41:36.595Z,7.40
2023-05-06T21:44:04.482Z,7.40
2023-05-06T21:46:32.557Z,7.40
2023-05-06T21:48:59.864Z,7.30
2023-05-06T21:51:34.971Z,7.40
2023-05-06T21:54:03.488Z,7.40
2023-05-06T21:56:30.434Z,7.30
2023-05-06T21:58:57.214Z,7.30
2023-05-06T22:01:26.166Z,7.30
2023-05-06T22:03:54.142Z,7.30
2023-05-06T22:06:21.487Z,7.30
2023-05-06T22:08:48.312Z,7.30
2023-05-06T22:11:15.233Z,7.30
2023-05-06T22:13:42.080Z,7.30
2023-05-06T22:16:09.803Z,7.30
2023-05-06T22:18:41.210Z,7.30
2023-05-06T22:21:09.611Z,7.30
2023-05-06T22:23:36.823Z,7.30
2023-05-06T22:26:04.191Z,7.20
2023-05-06T22:28:30.949Z,7.30
2023-05-06T22:30:57.683Z,7.30
2023-05-06T22:33:26.319Z,7.30
2023-05-06T22:35:53.771Z,7.20
2023-05-06T22:38:20.887Z,7.20
2023-05-06T22:40:47.951Z,7.20
2023-05-06T22:43:14.764Z,7.20
2023-05-06T22:45:41.616Z,7.20
2023-05-06T22:48:08.538Z,7.20
2023-05-06T22:50:36.368Z,7.20
2023-05-06T22:53:13.649Z,7.20
2023-05-06T22:55:42.268Z,7.20
2023-05-06T22:58:09.061Z,7.30
2023-05-06T23:00:35.869Z,7.20
2023-05-06T23:03:03.015Z,7.20
2023-05-06T23:05:29.939Z,7.20
2023-05-06T23:07:56.718Z,7.20
2023-05-06T23:10:23.675Z,7.20
2023-05-06T23:12:50.796Z,7.30
2023-05-06T23:15:17.819Z,7.20
2023-05-06T23:17:44.820Z,7.20
2023-05-06T23:20:12.829Z,7.20
2023-05-06T23:22:39.909Z,7.20
2023-05-06T23:25:09.194Z,7.20
2023-05-06T23:27:39.925Z,7.20
2023-05-06T23:30:10.034Z,7.20
2023-05-06T23:32:38.231Z,7.20
2023-05-06T23:35:07.381Z,7.20
2023-05-06T23:37:34.447Z,7.10
2023-05-06T23:40:01.334Z,7.10
2023-05-06T23:42:28.070Z,7.10
2023-05-06T23:44:56.069Z,7.10
2023-05-06T23:47:24.514Z,7.00
2023-05-06T23:49:51.610Z,7.00
2023-05-06T23:52:18.545Z,7.00
2023-05-06T23:54:45.504Z,7.00
2023-05-06T23:57:12.644Z,7.00
2023-05-06T23:59:40.659Z,6.90
